createdAt,value
2023-04-15T00:01:19.798Z,27.96
2023-04-15T00:03:48.740Z,27.94
2023-04-15T00:06:17.385Z,28.12
2023-04-15T00:08:46.892Z,27.70
2023-04-15T00:11:15.987Z,28.18
2023-04-15T00:13:44.426Z,28.13
2023-04-15T00:16:13.004Z,28.42
2023-04-15T00:18:41.304Z,28.27
2023-04-15T00:21:09.714Z,28.53
2023-04-15T00:23:37.965Z,28.61
2023-04-15T00:26:07.855Z,28.46
2023-04-15T00:28:36.013Z,28.47
2023-04-15T00:31:04.584Z,28.25
2023-04-15T00:33:32.865Z,28.21
2023-04-15T00:36:01.761Z,28.02
2023-04-15T00:38:29.987Z,28.02
2023-04-15T00:40:58.678Z,28.19
2023-04-15T00:43:28.218Z,28.17
2023-04-15T00:45:58.585Z,27.87
2023-04-15T00:48:28.061Z,27.97
2023-04-15T00:50:56.937Z,28.10
2023-04-15T00:53:25.156Z,27.95
2023-04-15T00:55:53.752Z,27.98
2023-04-15T00:58:21.857Z,27.95
2023-04-15T01:00:54.453Z,27.65
2023-04-15T01:03:22.853Z,27.91
2023-04-15T01:05:53.064Z,27.95
2023-04-15T01:08:21.217Z,27.93
2023-04-15T01:10:49.925Z,27.75
2023-04-15T01:13:18.052Z,27.99
2023-04-15T03:30:23.400Z,24.05
2023-04-15T03:32:52.076Z,24.34
2023-04-15T03:35:20.439Z,24.41
2023-04-15T03:37:49.343Z,24.52
2023-04-15T03:40:17.589Z,24.55
2023-04-15T03:42:46.121Z,24.75
2023-04-15T03:45:14.318Z,24.85
2023-04-15T03:47:44.201Z,24.50
2023-04-15T03:50:12.571Z,24.45
2023-04-15T03:52:40.997Z,24.56
2023-04-15T03:55:10.294Z,24.63
2023-04-15T03:57:39.935Z,24.82
2023-04-15T04:00:10.667Z,24.64
2023-04-15T04:02:39.529Z,24.61
2023-04-15T04:05:10.055Z,24.54
2023-04-15T04:07:38.446Z,24.85
2023-04-15T04:10:07.972Z,25.04
2023-04-15T04:12:36.391Z,25.12
2023-04-15T04:15:04.994Z,25.16
2023-04-15T04:17:42.400Z,25.25
2023-04-15T04:20:12.502Z,24.86
2023-04-15T04:22:41.349Z,25.06
2023-04-15T04:25:11.280Z,24.99
2023-04-15T04:27:39.667Z,25.03
2023-04-15T04:30:09.200Z,25.02
2023-04-15T04:32:37.739Z,25.39
2023-04-15T04:35:06.219Z,25.27
2023-04-15T04:37:36.270Z,25.16
2023-04-15T04:40:04.868Z,25.37
2023-04-15T04:42:33.342Z,25.24
2023-04-15T04:45:01.492Z,25.15
2023-04-15T04:47:30.335Z,25.11
2023-04-15T04:49:58.519Z,24.92
2023-04-15T04:52:26.913Z,25.00
2023-04-15T04:54:56.412Z,24.73
2023-04-15T04:57:24.945Z,24.78
2023-04-15T04:59:53.230Z,24.71
2023-04-15T05:02:22.075Z,24.52
2023-04-15T05:04:50.435Z,24.46
2023-04-15T05:07:20.871Z,24.51
2023-04-15T05:09:49.196Z,24.29
2023-04-15T05:12:19.026Z,23.95
2023-04-15T05:14:47.927Z,24.12
2023-04-15T05:17:16.482Z,23.79
2023-04-15T05:19:44.762Z,23.60
2023-04-15T05:22:13.147Z,23.59
2023-04-15T05:24:41.376Z,23.30
2023-04-15T05:27:11.664Z,23.25
2023-04-15T05:29:41.183Z,22.69
2023-04-15T05:32:09.598Z,23.09
2023-04-15T05:34:37.743Z,22.80
2023-04-15T05:37:06.204Z,22.50
2023-04-15T05:39:34.617Z,22.61
2023-04-15T05:42:03.629Z,22.41
2023-04-15T05:44:31.969Z,22.28
2023-04-15T05:47:03.639Z,21.58
2023-04-15T05:49:32.021Z,20.33
2023-04-15T05:52:00.834Z,21.59
2023-04-15T05:54:29.036Z,21.72
2023-04-15T05:56:57.787Z,21.45
2023-04-15T05:59:26.000Z,20.89
2023-04-15T06:01:54.544Z,20.78
2023-04-15T06:04:24.345Z,20.38
2023-04-15T06:06:52.944Z,20.09
2023-04-15T06:09:21.371Z,19.80
2023-04-15T06:11:49.810Z,19.78
2023-04-15T06:14:18.082Z,19.16
2023-04-15T06:16:47.065Z,19.00
2023-04-15T06:19:16.040Z,19.08
2023-04-15T06:21:46.193Z,18.17
2023-04-15T06:24:14.420Z,17.28
2023-04-15T06:26:43.068Z,13.90
2023-04-15T06:29:11.406Z,12.56
2023-04-15T06:31:40.029Z,11.40
2023-04-15T06:34:08.322Z,10.34
2023-04-15T06:36:36.813Z,9.91
2023-04-15T06:39:06.520Z,9.31
2023-04-15T06:41:35.733Z,9.49
2023-04-15T06:44:03.871Z,9.59
2023-04-15T06:46:32.437Z,9.71
2023-04-15T06:49:00.786Z,9.82
2023-04-15T06:51:29.482Z,10.16
2023-04-15T06:53:58.028Z,9.66
2023-04-15T06:56:27.919Z,7.70
2023-04-15T06:58:56.267Z,7.28
2023-04-15T07:01:24.773Z,6.75
2023-04-15T07:03:53.181Z,6.37
2023-04-15T07:06:22.097Z,6.37
2023-04-15T07:08:50.488Z,7.62
2023-04-15T07:11:19.204Z,7.72
2023-04-15T07:13:48.725Z,7.47
2023-04-15T07:16:17.502Z,8.01
2023-04-15T07:18:45.793Z,8.35
2023-04-15T07:21:14.346Z,8.02
2023-04-15T07:23:43.694Z,7.93
2023-04-15T07:26:12.470Z,7.38
2023-04-15T07:28:40.681Z,6.85
2023-04-15T07:31:10.686Z,6.13
2023-04-15T07:33:38.923Z,5.65
2023-04-15T07:36:07.655Z,5.99
2023-04-15T07:38:35.913Z,5.68
2023-04-15T07:41:05.024Z,5.26
2023-04-15T07:43:33.458Z,5.53
2023-04-15T07:46:02.114Z,4.88
2023-04-15T07:48:32.105Z,4.47
2023-04-15T07:51:00.745Z,5.27
2023-04-15T07:53:28.945Z,5.18
2023-04-15T07:55:57.491Z,5.37
2023-04-15T07:58:25.894Z,4.79
2023-04-15T08:00:55.341Z,4.24
2023-04-15T08:03:23.918Z,3.62
2023-04-15T08:05:54.464Z,2.64
2023-04-15T08:08:22.682Z,2.84
2023-04-15T08:10:52.820Z,2.83
2023-04-15T08:13:22.440Z,2.69
2023-04-15T08:16:16.303Z,3.29
2023-04-15T08:18:44.596Z,3.72
2023-04-15T08:21:15.054Z,3.56
2023-04-15T08:23:43.889Z,3.86
2023-04-15T08:26:12.920Z,4.38
2023-04-15T08:28:42.107Z,3.32
2023-04-15T08:31:10.658Z,2.28
2023-04-15T08:33:38.875Z,2.35
2023-04-15T08:36:07.816Z,2.48
2023-04-15T08:38:37.634Z,2.42
2023-04-15T08:41:11.743Z,1.48
2023-04-15T08:43:50.817Z,1.12
2023-04-15T08:46:19.849Z,0.30
2023-04-15T08:48:49.430Z,0.20
2023-04-15T08:51:18.263Z,0.70
2023-04-15T08:53:48.051Z,1.10
2023-04-15T08:56:17.481Z,2.49
2023-04-15T08:58:46.197Z,2.80
2023-04-15T09:01:15.079Z,3.10
2023-04-15T09:03:43.757Z,3.34
2023-04-15T09:06:13.158Z,3.95
2023-04-15T09:08:41.477Z,4.30
2023-04-15T09:11:12.411Z,3.93
2023-04-15T09:13:40.637Z,2.58
2023-04-15T09:16:09.458Z,1.71
2023-04-15T09:18:39.863Z,0.97
2023-04-15T09:21:11.299Z,0.15
2023-04-15T09:23:41.188Z,0.46
2023-04-15T09:26:11.446Z,0.14
2023-04-15T09:28:43.689Z,0.00
2023-04-15T09:31:12.309Z,0.00
2023-04-15T09:33:56.287Z,0.00
2023-04-15T09:36:25.347Z,0.00
2023-04-15T09:38:57.622Z,0.00
2023-04-15T09:41:28.679Z,0.29
2023-04-15T09:43:57.022Z,1.78
2023-04-15T09:46:46.575Z,3.40
2023-04-15T09:49:18.325Z,5.18
2023-04-15T09:52:01.477Z,6.42
2023-04-15T09:54:47.552Z,5.18
2023-04-15T09:57:18.500Z,3.45
2023-04-15T09:59:46.760Z,2.64
2023-04-15T10:02:17.868Z,2.74
2023-04-15T10:04:50.300Z,3.97
2023-04-15T10:07:20.885Z,4.96
2023-04-15T10:09:50.092Z,5.25
2023-04-15T10:12:20.923Z,3.29
2023-04-15T10:14:57.995Z,3.21
2023-04-15T10:17:31.664Z,3.52
2023-04-15T10:20:01.161Z,4.71
2023-04-15T10:22:30.167Z,6.22
2023-04-15T10:24:58.529Z,7.45
2023-04-15T10:27:29.734Z,8.38
2023-04-15T10:29:58.603Z,8.52
2023-04-15T10:32:27.241Z,8.21
2023-04-15T10:34:55.818Z,7.58
2023-04-15T10:37:36.215Z,7.07
2023-04-15T10:40:25.776Z,6.28
2023-04-15T10:42:56.689Z,7.39
2023-04-15T10:45:28.110Z,7.17
2023-04-15T10:47:58.182Z,8.14
2023-04-15T10:50:29.922Z,8.53
2023-04-15T10:52:58.884Z,8.88
2023-04-15T10:55:28.970Z,8.65
2023-04-15T10:58:02.212Z,8.22
2023-04-15T11:00:31.594Z,8.52
2023-04-15T11:03:01.967Z,9.11
2023-04-15T11:05:51.683Z,8.84
2023-04-15T11:08:22.450Z,9.00
2023-04-15T11:10:57.974Z,9.10
2023-04-15T11:13:29.398Z,9.57
2023-04-15T11:16:02.611Z,9.41
2023-04-15T11:18:35.543Z,9.17
2023-04-15T11:21:08.310Z,9.79
2023-04-15T11:23:39.521Z,10.19
2023-04-15T11:26:12.010Z,10.36
2023-04-15T11:28:43.801Z,10.30
2023-04-15T11:31:14.860Z,10.56
2023-04-15T11:33:48.156Z,9.80
2023-04-15T11:36:16.342Z,9.73
2023-04-15T11:38:47.459Z,9.47
2023-04-15T11:41:15.866Z,9.53
2023-04-15T11:43:45.748Z,9.26
2023-04-15T11:46:14.001Z,9.81
2023-04-15T11:48:45.024Z,11.22
2023-04-15T11:51:14.033Z,12.17
2023-04-15T11:53:44.598Z,12.83
2023-04-15T11:56:18.863Z,12.29
2023-04-15T11:58:50.855Z,12.65
2023-04-15T12:01:19.804Z,12.80
2023-04-15T12:03:49.628Z,12.67
2023-04-15T12:06:20.291Z,11.96
2023-04-15T12:09:10.497Z,11.58
2023-04-15T12:11:41.500Z,11.52
2023-04-15T12:14:12.757Z,11.42
2023-04-15T12:16:48.469Z,12.42
2023-04-15T12:19:20.508Z,12.85
2023-04-15T12:21:49.653Z,13.12
2023-04-15T12:24:21.855Z,12.82
2023-04-15T12:26:51.655Z,13.27
2023-04-15T12:29:25.951Z,13.49
2023-04-15T12:31:55.573Z,13.94
2023-04-15T12:34:31.390Z,13.85
2023-04-15T12:37:01.877Z,14.32
2023-04-15T12:39:32.662Z,14.54
2023-04-15T12:42:01.735Z,14.79
2023-04-15T12:44:31.726Z,14.59
2023-04-15T12:47:00.248Z,14.32
2023-04-15T12:49:29.708Z,14.34
2023-04-15T12:52:00.059Z,13.68
2023-04-15T12:54:29.216Z,13.91
2023-04-15T12:56:57.687Z,13.84
2023-04-15T12:59:26.145Z,13.28
2023-04-15T13:01:55.859Z,12.84
2023-04-15T13:04:24.651Z,12.64
2023-04-15T13:06:53.343Z,12.38
2023-04-15T13:09:22.010Z,12.35
2023-04-15T13:11:51.195Z,11.74
2023-04-15T13:14:19.703Z,12.29
2023-04-15T13:16:47.947Z,12.59
2023-04-15T13:19:17.823Z,12.54
2023-04-15T13:21:46.157Z,12.39
2023-04-15T13:24:14.727Z,12.14
2023-04-15T13:26:43.051Z,12.56
2023-04-15T13:29:12.337Z,13.34
2023-04-15T13:31:40.713Z,12.89
2023-04-15T13:34:09.327Z,12.64
2023-04-15T13:36:38.963Z,12.11
2023-04-15T13:39:07.568Z,13.60
2023-04-15T13:41:35.795Z,13.47
2023-04-15T13:44:05.564Z,13.65
2023-04-15T13:46:34.442Z,13.94
2023-04-15T13:49:02.965Z,14.39
2023-04-15T13:51:31.100Z,14.21
2023-04-15T13:54:00.991Z,13.91
2023-04-15T13:56:29.198Z,14.32
2023-04-15T13:59:02.380Z,14.38
2023-04-15T14:01:30.815Z,13.95
2023-04-15T14:03:59.391Z,14.22
2023-04-15T14:06:28.553Z,14.61
2023-04-15T14:08:56.993Z,14.24
2023-04-15T14:11:26.706Z,13.70
2023-04-15T14:13:55.304Z,14.26
2023-04-15T14:16:23.573Z,14.07
2023-04-15T14:18:52.321Z,14.00
2023-04-15T14:21:20.875Z,14.30
2023-04-15T14:23:49.746Z,14.41
2023-04-15T14:26:17.948Z,14.90
2023-04-15T14:28:48.542Z,15.01
2023-04-15T14:31:16.880Z,15.42
2023-04-15T14:33:45.409Z,15.85
2023-04-15T14:36:13.714Z,15.77
2023-04-15T14:38:42.167Z,15.52
2023-04-15T14:41:10.762Z,15.34
2023-04-15T14:43:39.299Z,15.49
2023-04-15T14:46:09.558Z,14.75
2023-04-15T14:48:38.388Z,14.12
2023-04-15T14:51:07.168Z,14.64
2023-04-15T14:53:35.876Z,15.09
2023-04-15T14:56:04.276Z,15.83
2023-04-15T14:58:33.346Z,15.60
2023-04-15T15:01:02.058Z,16.46
2023-04-15T15:03:35.518Z,16.07
2023-04-15T15:06:03.934Z,16.97
2023-04-15T15:08:32.522Z,16.93
2023-04-15T15:11:00.841Z,16.78
2023-04-15T15:13:29.309Z,16.49
2023-04-15T15:15:58.801Z,16.47
2023-04-15T15:18:27.384Z,16.35
2023-04-15T15:20:56.998Z,16.04
2023-04-15T15:23:25.714Z,15.68
2023-04-15T15:25:54.152Z,15.72
2023-04-15T15:28:22.926Z,15.35
2023-04-15T15:30:51.108Z,15.57
2023-04-15T15:33:20.882Z,15.86
2023-04-15T15:35:49.196Z,15.99
2023-04-15T15:38:19.386Z,15.35
2023-04-15T15:40:50.701Z,15.57
2023-04-15T15:43:21.362Z,15.44
2023-04-15T15:45:51.801Z,15.59
2023-04-15T15:48:20.873Z,15.23
2023-04-15T15:50:49.066Z,15.08
2023-04-15T15:53:20.987Z,14.59
2023-04-15T15:55:49.343Z,15.49
2023-04-15T15:58:17.825Z,15.29
2023-04-15T16:00:46.138Z,15.32
2023-04-15T16:03:14.959Z,15.01
2023-04-15T16:05:43.590Z,14.88
2023-04-15T16:08:12.135Z,15.50
2023-04-15T16:10:41.757Z,15.11
2023-04-15T16:13:10.704Z,15.24
2023-04-15T16:15:39.185Z,14.87
2023-04-15T16:18:08.012Z,15.33
2023-04-15T16:20:36.648Z,15.62
2023-04-15T16:23:10.540Z,14.97
2023-04-15T16:25:38.874Z,15.09
2023-04-15T16:28:22.697Z,16.17
2023-04-15T16:30:53.828Z,15.66
2023-04-15T16:33:22.500Z,16.01
2023-04-15T16:35:51.986Z,16.09
2023-04-15T16:38:20.908Z,16.00
2023-04-15T16:40:49.164Z,16.37
2023-04-15T16:43:19.252Z,16.60
2023-04-15T16:45:51.206Z,17.01
2023-04-15T16:48:20.885Z,17.16
2023-04-15T16:50:49.371Z,17.54
2023-04-15T16:53:17.851Z,17.79
2023-04-15T16:55:46.174Z,17.99
2023-04-15T16:58:14.834Z,18.86
2023-04-15T17:00:44.506Z,19.54
2023-04-15T17:03:13.019Z,21.72
2023-04-15T17:05:42.476Z,22.35
2023-04-15T17:08:11.108Z,22.25
2023-04-15T17:10:39.328Z,23.18
2023-04-15T17:13:08.328Z,23.08
2023-04-15T17:15:36.714Z,23.00
2023-04-15T17:18:07.121Z,22.40
2023-04-15T17:20:36.118Z,22.88
2023-04-15T17:23:05.278Z,22.73
2023-04-15T17:25:33.671Z,23.04
2023-04-15T17:28:02.410Z,23.04
2023-04-15T17:30:30.890Z,22.99
2023-04-15T17:32:59.729Z,22.80
2023-04-15T17:35:29.437Z,23.07
2023-04-15T17:37:59.270Z,24.07
2023-04-15T17:40:27.656Z,26.68
2023-04-15T17:42:56.396Z,27.74
2023-04-15T17:45:26.760Z,27.76
2023-04-15T17:47:55.800Z,27.13
2023-04-15T17:50:24.218Z,27.55
2023-04-15T17:52:54.189Z,27.10
2023-04-15T17:55:22.793Z,27.60
2023-04-15T17:57:51.407Z,28.19
2023-04-15T18:00:19.690Z,28.38
2023-04-15T18:02:49.034Z,28.61
2023-04-15T18:05:18.925Z,28.66
2023-04-15T18:07:47.494Z,28.58
2023-04-15T18:10:17.152Z,28.06
2023-04-15T18:12:45.568Z,27.77
2023-04-15T18:15:14.608Z,27.72
2023-04-15T18:17:43.039Z,27.80
2023-04-15T18:20:12.877Z,27.75
2023-04-15T18:22:41.537Z,27.73
2023-04-15T18:25:10.621Z,27.41
2023-04-15T18:27:40.557Z,27.29
2023-04-15T18:30:09.928Z,27.36
2023-04-15T18:32:38.572Z,27.36
2023-04-15T18:35:07.953Z,26.88
2023-04-15T18:37:36.725Z,26.93
2023-04-15T18:40:05.435Z,26.87
2023-04-15T18:42:33.994Z,27.05
2023-04-15T18:45:03.580Z,26.46
2023-04-15T18:47:32.401Z,26.43
2023-04-15T18:50:00.793Z,26.23
2023-04-15T18:52:30.828Z,26.33
2023-04-15T18:54:59.119Z,26.12
2023-04-15T18:57:31.143Z,25.93
2023-04-15T19:00:00.835Z,26.29
2023-04-15T19:02:30.722Z,26.09
2023-04-15T19:04:59.493Z,26.80
2023-04-15T19:07:28.158Z,26.82
2023-04-15T19:09:56.456Z,27.22
2023-04-15T19:12:25.170Z,27.36
2023-04-15T19:14:53.420Z,27.27
2023-04-15T19:17:21.981Z,27.03
2023-04-15T19:19:51.892Z,26.97
2023-04-15T19:22:20.474Z,27.17
2023-04-15T19:24:48.809Z,26.94
2023-04-15T19:27:17.470Z,27.03
2023-04-15T19:29:45.743Z,27.15
2023-04-15T19:32:14.806Z,27.26
2023-04-15T19:34:43.286Z,27.17
2023-04-15T19:37:13.813Z,27.00
2023-04-15T19:39:42.126Z,27.39
2023-04-15T19:42:10.868Z,26.99
2023-04-15T19:44:42.964Z,27.14
2023-04-15T19:47:12.098Z,27.04
2023-04-15T19:49:40.602Z,27.17
2023-04-15T19:52:09.247Z,27.41
2023-04-15T19:54:39.161Z,27.21
2023-04-15T19:57:07.775Z,27.47
2023-04-15T19:59:36.348Z,27.64
2023-04-15T20:02:04.984Z,27.60
2023-04-15T20:04:34.001Z,27.59
2023-04-15T20:07:02.884Z,27.58
2023-04-15T20:09:31.170Z,27.50
2023-04-15T20:12:47.216Z,27.26
2023-04-15T20:14:49.306Z,27.53
2023-04-15T20:17:17.860Z,27.57
2023-04-15T20:19:46.022Z,27.48
2023-04-15T20:22:14.508Z,27.15
2023-04-15T20:24:42.728Z,27.56
2023-04-15T20:27:12.601Z,27.29
2023-04-15T20:29:40.922Z,27.42
2023-04-15T20:32:11.673Z,27.61
2023-04-15T20:34:40.177Z,27.73
2023-04-15T20:37:08.633Z,27.61
2023-04-15T20:39:36.805Z,27.80
2023-04-15T20:42:05.407Z,27.69
2023-04-15T20:44:35.777Z,27.23
2023-04-15T20:47:04.314Z,27.82
2023-04-15T20:49:35.043Z,27.79
2023-04-15T20:52:03.766Z,28.06
2023-04-15T20:54:32.018Z,28.09
2023-04-15T20:57:01.496Z,28.25
2023-04-15T20:59:30.068Z,28.23
2023-04-15T21:01:59.950Z,27.88
2023-04-15T21:04:28.316Z,28.29
2023-04-15T21:06:56.964Z,28.35
2023-04-15T21:09:25.945Z,28.50
2023-04-15T21:12:01.019Z,28.45
2023-04-15T21:14:30.136Z,28.73
2023-04-15T21:17:00.014Z,28.62
2023-04-15T21:19:28.249Z,28.94
2023-04-15T21:21:56.671Z,28.82
2023-04-15T21:24:24.899Z,28.61
2023-04-15T21:26:53.325Z,28.75
2023-04-15T21:29:21.652Z,28.77
2023-04-15T21:31:50.107Z,28.59
2023-04-15T21:34:19.751Z,28.22
2023-04-15T21:36:48.278Z,28.53
2023-04-15T21:39:17.217Z,28.37
2023-04-15T21:41:45.893Z,28.34
2023-04-15T21:44:15.142Z,28.19
2023-04-15T21:46:46.103Z,28.35
2023-04-15T21:49:14.766Z,28.48
2023-04-15T21:51:45.770Z,28.14
2023-04-15T21:54:13.929Z,28.59
2023-04-15T21:56:43.168Z,28.70
2023-04-15T21:59:11.332Z,28.74
2023-04-15T22:01:39.827Z,28.66
2023-04-15T22:04:08.201Z,28.61
2023-04-15T22:06:36.894Z,28.91
2023-04-15T22:09:06.547Z,28.65
2023-04-15T22:11:35.083Z,29.11
2023-04-15T22:14:03.287Z,29.17
2023-04-15T22:16:31.852Z,29.23
2023-04-15T22:18:59.970Z,28.87
2023-04-15T22:21:28.645Z,29.03
2023-04-15T22:24:38.375Z,29.03
2023-04-15T22:26:47.008Z,28.79
2023-04-15T22:29:15.170Z,28.84
2023-04-15T22:31:43.893Z,29.00
2023-04-15T22:34:14.801Z,29.07
2023-04-15T22:36:43.350Z,29.23
2023-04-15T22:39:11.522Z,29.12
2023-04-15T22:44:09.352Z,28.87
2023-04-15T22:46:38.409Z,29.09
2023-04-15T22:49:09.224Z,28.58
2023-04-15T22:51:38.374Z,29.07
2023-04-15T22:54:06.559Z,29.16
2023-04-15T22:56:35.049Z,29.44
2023-04-15T22:59:03.132Z,29.16
2023-04-15T23:01:33.030Z,29.15
2023-04-15T23:04:04.011Z,29.22
2023-04-15T23:06:37.328Z,29.31
2023-04-15T23:09:05.596Z,29.38
2023-04-15T23:11:34.118Z,29.01
2023-04-15T23:14:02.530Z,28.98
2023-04-15T23:16:32.713Z,28.74
2023-04-15T23:19:01.120Z,29.20
2023-04-15T23:21:30.035Z,29.31
2023-04-15T23:23:58.387Z,29.31
2023-04-15T23:26:27.431Z,29.33
2023-04-15T23:28:55.668Z,29.56
2023-04-15T23:31:24.385Z,29.47
2023-04-15T23:33:54.180Z,29.46
2023-04-15T23:36:22.864Z,29.53
2023-04-15T23:38:51.074Z,29.46
2023-04-15T23:41:19.500Z,29.65
2023-04-15T23:43:50.970Z,29.48
2023-04-15T23:46:21.652Z,29.74
2023-04-15T23:48:50.553Z,29.87
2023-04-15T23:51:22.490Z,29.43
2023-04-15T23:53:52.751Z,29.74
2023-04-15T23:56:22.360Z,29.87
2023-04-15T23:58:51.031Z,30.04
